Time;durP1;ratioP1;P1;durP2;ratioP2;P2;SDS_P1;SDS_P2;PMS_P1;PMS_P2;Temp;Humidity;BMP_temperature;BMP_pressure;BME280_temperature;BME280_humidity;BME280_pressure;Samples;Min_cycle;Max_cycle;Signal;HPM_P1;HPM_P2
2022/08/04 00:00:14;;;;;;;9.48;1.67;;;22.10;99.90;;;;;;7341033;32;20201;-60
2022/08/04 00:04:52;;;;;;;7.28;1.40;;;22.20;99.90;;;;;;7338642;32;20257;-59
2022/08/04 00:09:02;;;;;;;8.00;1.40;;;22.30;99.90;;;;;;7320833;32;20181;-60
2022/08/04 00:13:06;;;;;;;8.45;1.30;;;22.40;99.90;;;;;;7341586;32;20186;-59
2022/08/04 00:17:08;;;;;;;8.25;1.35;;;22.50;99.90;;;;;;7341505;32;20099;-60
2022/08/04 00:21:14;;;;;;;6.95;1.60;;;22.50;99.90;;;;;;7341055;32;20298;-62
2022/08/04 00:25:15;;;;;;;5.40;1.25;;;22.50;99.90;;;;;;7337187;32;20092;-60
2022/08/04 00:29:17;;;;;;;6.00;1.35;;;22.50;99.90;;;;;;7338145;32;20107;-60
2022/08/04 00:33:20;;;;;;;7.22;1.20;;;22.50;99.90;;;;;;7335692;32;20515;-60
2022/08/04 00:37:23;;;;;;;8.55;1.40;;;22.40;99.90;;;;;;7343680;32;20674;-60
2022/08/04 00:41:39;;;;;;;4.78;1.27;;;22.30;99.90;;;;;;7338450;32;20660;-60
2022/08/04 00:46:22;;;;;;;7.60;1.15;;;22.20;99.90;;;;;;7337506;32;20095;-61
2022/08/04 00:51:03;;;;;;;6.40;1.48;;;22.10;99.90;;;;;;7347953;32;20531;-60
2022/08/04 00:55:57;;;;;;;6.57;1.37;;;22.10;99.90;;;;;;7327294;32;20192;-60
2022/08/04 01:00:02;;;;;;;9.80;1.60;;;22.10;99.90;;;;;;7328386;32;20195;-61
2022/08/04 01:04:07;;;;;;;10.35;1.50;;;22.30;99.90;;;;;;7339123;32;20131;-60
2022/08/04 01:08:12;;;;;;;7.00;1.30;;;22.40;99.90;;;;;;7339477;32;20278;-60
2022/08/04 01:12:22;;;;;;;8.45;1.60;;;22.40;99.90;;;;;;7340308;32;20180;-60
2022/08/04 01:16:26;;;;;;;10.73;1.62;;;22.40;99.90;;;;;;7350347;32;20129;-60
2022/08/04 01:20:33;;;;;;;7.03;1.25;;;22.50;99.90;;;;;;7350005;32;20225;-60
2022/08/04 01:24:41;;;;;;;;;;;22.40;99.90;;;;;;7347030;32;20260;-60
2022/08/04 01:28:58;;;;;;;9.05;1.25;;;22.40;99.90;;;;;;7343207;32;20465;-59
2022/08/04 01:33:00;;;;;;;;;;;22.60;99.90;;;;;;7345601;32;20209;-60
2022/08/04 01:37:27;;;;;;;9.85;1.40;;;22.60;99.90;;;;;;7350130;32;20094;-59
2022/08/04 01:41:30;;;;;;;8.40;1.50;;;22.60;99.90;;;;;;7343999;32;20227;-60
2022/08/04 01:45:36;;;;;;;8.15;1.60;;;22.50;99.90;;;;;;7347991;32;20473;-61
2022/08/04 01:49:38;;;;;;;8.35;1.60;;;22.40;99.90;;;;;;7343807;32;20166;-61
2022/08/04 01:53:42;;;;;;;7.00;1.42;;;22.40;99.90;;;;;;7349953;32;20111;-60
2022/08/04 01:57:47;;;;;;;7.97;1.30;;;22.20;99.90;;;;;;7346769;32;20167;-61
2022/08/04 02:01:49;;;;;;;8.00;1.20;;;22.20;99.90;;;;;;7344759;32;20178;-60
2022/08/04 02:05:58;;;;;;;10.55;1.80;;;22.10;99.90;;;;;;7345609;32;20225;-60
2022/08/04 02:10:06;;;;;;;7.03;1.20;;;21.90;99.90;;;;;;7338376;32;20133;-60
2022/08/04 02:14:40;;;;;;;7.37;1.30;;;21.90;99.90;;;;;;7348515;32;20247;-59
2022/08/04 02:19:05;;;;;;;7.93;1.60;;;21.80;99.90;;;;;;7347541;32;20198;-60
2022/08/04 02:23:24;;;;;;;3.20;1.33;;;21.70;99.90;;;;;;7343606;32;20145;-60
2022/08/04 02:27:30;;;;;;;4.95;1.17;;;21.60;99.90;;;;;;7344980;32;20508;-60
2022/08/04 02:32:01;;;;;;;6.60;1.42;;;21.30;99.90;;;;;;7346206;32;20236;-60
2022/08/04 02:36:05;;;;;;;10.68;1.85;;;21.20;99.90;;;;;;7345008;32;20111;-60
2022/08/04 02:40:10;;;;;;;9.82;1.80;;;20.90;99.90;;;;;;7347403;32;20127;-59
2022/08/04 02:44:13;;;;;;;6.10;1.42;;;20.90;99.90;;;;;;7343688;32;20504;-60
2022/08/04 02:48:17;;;;;;;7.60;1.67;;;20.60;99.90;;;;;;7342146;32;20254;-61
2022/08/04 02:52:33;;;;;;;6.43;1.17;;;20.40;99.90;;;;;;7347527;32;20215;-61
2022/08/04 02:56:36;;;;;;;5.45;1.30;;;20.20;99.90;;;;;;7343119;32;20114;-60
2022/08/04 03:00:39;;;;;;;8.02;1.55;;;20.00;99.90;;;;;;7342638;32;20095;-60
2022/08/04 03:04:56;;;;;;;7.70;1.60;;;19.90;99.90;;;;;;7341770;32;20488;-61
2022/08/04 03:09:17;;;;;;;6.70;1.60;;;19.70;99.90;;;;;;7343119;32;20111;-60
2022/08/04 03:13:43;;;;;;;11.52;1.80;;;19.40;99.90;;;;;;7349541;32;20182;-61
2022/08/04 03:18:07;;;;;;;8.00;1.60;;;19.30;99.90;;;;;;7344216;32;20197;-60
2022/08/04 03:22:29;;;;;;;9.63;2.05;;;19.20;99.90;;;;;;7347597;32;20292;-60
2022/08/04 03:26:40;;;;;;;9.95;1.40;;;19.00;99.90;;;;;;7345869;32;20123;-61
2022/08/04 03:31:07;;;;;;;5.82;1.50;;;18.80;99.90;;;;;;7343936;32;20343;-61
2022/08/04 03:35:25;;;;;;;8.55;1.42;;;18.70;99.90;;;;;;7346577;32;20129;-60
2022/08/04 03:39:35;;;;;;;7.32;2.00;;;18.60;99.90;;;;;;7341691;32;20216;-61
2022/08/04 03:43:40;;;;;;;5.32;1.77;;;18.50;99.90;;;;;;7341088;32;20248;-61
2022/08/04 03:48:17;;;;;;;5.62;1.58;;;18.40;99.90;;;;;;7339178;32;20761;-61
2022/08/04 03:57:29;;;;;;;7.62;1.70;;;18.20;99.90;;;;;;7339183;32;20807;-60
2022/08/04 04:01:52;;;;;;;7.70;2.00;;;18.10;99.90;;;;;;7340902;32;20108;-60
2022/08/04 04:06:34;;;;;;;8.55;1.77;;;18.00;99.90;;;;;;7340678;32;20107;-61
2022/08/04 04:11:15;;;;;;;7.68;2.05;;;18.00;99.90;;;;;;7341877;32;20550;-60
2022/08/04 04:15:34;;;;;;;7.57;1.48;;;17.90;99.90;;;;;;7340071;32;20127;-60
2022/08/04 04:19:56;;;;;;;7.87;1.60;;;17.90;99.90;;;;;;7339960;32;20890;-60
2022/08/04 04:24:02;;;;;;;4.43;1.50;;;17.90;99.90;;;;;;7343359;32;20111;-61
2022/08/04 04:28:30;;;;;;;9.00;2.15;;;17.90;99.90;;;;;;7340690;32;20178;-61
2022/08/04 04:33:25;;;;;;;5.93;1.62;;;17.90;99.90;;;;;;7341416;32;20143;-60
2022/08/04 04:37:42;;;;;;;7.70;2.00;;;17.80;99.90;;;;;;7345076;32;20129;-60
2022/08/04 04:42:07;;;;;;;9.02;1.90;;;17.90;99.90;;;;;;7328522;32;20317;-61
2022/08/04 04:46:42;;;;;;;8.25;1.90;;;17.90;99.90;;;;;;7334542;32;20221;-62
2022/08/04 04:51:09;;;;;;;5.20;2.08;;;17.90;99.90;;;;;;7340468;32;20612;-63
2022/08/04 04:55:55;;;;;;;8.60;1.95;;;18.10;99.90;;;;;;7335558;32;20221;-63
2022/08/04 05:00:09;;;;;;;6.20;1.90;;;18.40;99.90;;;;;;7293019;32;20807;-62
2022/08/04 05:04:50;;;;;;;8.77;2.20;;;19.00;99.90;;;;;;7336680;32;20133;-63
2022/08/04 05:09:22;;;;;;;6.60;2.45;;;19.50;99.90;;;;;;7340845;32;20342;-63
2022/08/04 05:13:45;;;;;;;7.05;1.80;;;19.70;99.90;;;;;;7336286;32;20139;-63
2022/08/04 05:18:10;;;;;;;3.67;1.65;;;19.60;99.90;;;;;;7336247;32;20138;-63
2022/08/04 05:22:46;;;;;;;6.93;1.73;;;19.50;99.90;;;;;;7336561;32;20210;-64
2022/08/04 05:26:52;;;;;;;7.30;1.95;;;19.50;99.90;;;;;;7342695;32;20681;-64
2022/08/04 05:31:08;;;;;;;8.13;2.22;;;19.40;99.90;;;;;;7339600;32;20156;-65
2022/08/04 05:35:15;;;;;;;9.07;2.05;;;19.40;99.90;;;;;;7340586;32;20186;-64
2022/08/04 05:39:45;;;;;;;5.82;2.03;;;19.50;99.90;;;;;;7342122;32;20139;-65
2022/08/04 05:43:48;;;;;;;7.65;2.12;;;19.60;99.90;;;;;;7332560;32;20175;-60
2022/08/04 05:47:52;;;;;;;6.47;2.30;;;19.70;99.90;;;;;;7330372;32;20214;-62
2022/08/04 05:51:58;;;;;;;5.70;1.95;;;19.80;99.90;;;;;;7335093;32;20233;-62
2022/08/04 05:56:02;;;;;;;5.40;2.20;;;19.90;99.90;;;;;;7338854;32;20210;-63
2022/08/04 06:00:05;;;;;;;4.50;2.28;;;20.10;99.90;;;;;;7337398;32;20726;-61
2022/08/04 06:04:31;;;;;;;4.53;1.87;;;20.30;99.90;;;;;;7341382;32;20115;-62
2022/08/04 06:08:33;;;;;;;4.00;1.90;;;20.40;99.90;;;;;;7342336;32;20107;-61
2022/08/04 06:12:36;;;;;;;5.20;2.03;;;20.60;99.90;;;;;;7340407;32;20283;-62
2022/08/04 06:16:41;;;;;;;4.80;2.10;;;20.80;99.90;;;;;;7343445;32;20585;-62
2022/08/04 06:20:46;;;;;;;5.93;2.35;;;20.90;99.90;;;;;;7341026;32;20115;-62
2022/08/04 06:24:54;;;;;;;7.60;2.05;;;21.10;99.90;;;;;;7339746;32;20163;-60
2022/08/04 06:28:56;;;;;;;5.72;2.05;;;21.40;99.90;;;;;;7334532;32;20182;-65
2022/08/04 06:33:02;;;;;;;5.53;2.58;;;21.50;99.90;;;;;;7336231;32;20129;-64
2022/08/04 06:37:07;;;;;;;5.28;1.80;;;21.70;99.90;;;;;;7335148;32;20135;-64
2022/08/04 06:41:09;;;;;;;2.83;2.10;;;22.00;99.90;;;;;;7339212;32;20115;-64
2022/08/04 06:45:12;;;;;;;3.92;1.55;;;22.30;99.90;;;;;;7342441;32;20116;-65
2022/08/04 06:49:16;;;;;;;5.30;1.85;;;22.60;99.90;;;;;;7343161;32;20505;-65
2022/08/04 06:53:18;;;;;;;3.55;2.15;;;22.80;99.90;;;;;;7342406;32;20145;-65
2022/08/04 06:57:23;;;;;;;3.85;1.67;;;23.00;99.90;;;;;;7340129;32;20177;-66
2022/08/04 07:01:26;;;;;;;4.90;1.92;;;23.30;99.90;;;;;;7338223;32;20459;-64
2022/08/04 07:05:29;;;;;;;4.75;1.90;;;23.50;99.90;;;;;;7339205;32;20161;-63
2022/08/04 07:09:31;;;;;;;3.20;1.80;;;23.70;99.90;;;;;;7341574;32;20142;-63
2022/08/04 07:13:33;;;;;;;5.80;1.50;;;23.90;99.90;;;;;;7341936;32;20326;-64
2022/08/04 07:17:35;;;;;;;4.60;1.83;;;23.90;99.90;;;;;;7342312;32;20287;-63
2022/08/04 07:21:38;;;;;;;3.92;1.70;;;24.10;99.90;;;;;;7344809;32;20243;-63
2022/08/04 07:25:42;;;;;;;4.97;1.70;;;24.10;99.90;;;;;;7346447;32;20137;-63
2022/08/04 07:30:08;;;;;;;3.87;1.98;;;24.30;99.90;;;;;;7340867;32;20182;-65
2022/08/04 07:34:10;;;;;;;7.93;1.87;;;24.60;99.90;;;;;;7335641;32;20175;-65
2022/08/04 07:38:22;;;;;;;2.92;1.73;;;24.60;99.90;;;;;;7337169;32;20131;-64
2022/08/04 07:42:28;;;;;;;2.83;1.60;;;24.80;99.90;;;;;;7336317;32;20641;-60
2022/08/04 07:46:30;;;;;;;3.47;1.73;;;25.00;99.90;;;;;;7343180;32;20228;-66
2022/08/04 07:50:33;;;;;;;4.60;1.95;;;25.10;99.90;;;;;;7344338;32;20280;-65
2022/08/04 07:54:36;;;;;;;7.15;2.10;;;25.20;99.90;;;;;;7337734;32;20495;-67
2022/08/04 07:58:38;;;;;;;9.15;2.25;;;25.30;99.90;;;;;;7340691;32;20107;-65
2022/08/04 08:02:51;;;;;;;4.32;1.90;;;25.40;99.90;;;;;;7330749;32;20463;-65
2022/08/04 08:06:53;;;;;;;6.00;2.00;;;25.50;99.90;;;;;;7342591;32;20201;-65
2022/08/04 08:10:54;;;;;;;5.68;2.45;;;25.60;99.90;;;;;;7342559;32;20131;-65
2022/08/04 08:14:57;;;;;;;3.87;1.83;;;26.20;99.90;;;;;;7340708;32;20336;-65
2022/08/04 08:19:00;;;;;;;6.60;2.05;;;26.30;99.90;;;;;;7335800;32;20176;-65
2022/08/04 08:23:02;;;;;;;6.97;2.03;;;26.30;99.90;;;;;;7335093;32;20135;-66
2022/08/04 08:27:13;;;;;;;5.03;2.45;;;26.40;99.90;;;;;;7345474;32;20182;-65
2022/08/04 08:31:14;;;;;;;3.30;1.90;;;26.60;99.90;;;;;;7335771;32;20140;-65
2022/08/04 08:35:17;;;;;;;3.30;1.83;;;26.80;99.90;;;;;;7339406;32;20227;-65
2022/08/04 08:39:27;;;;;;;3.50;1.85;;;27.10;99.90;;;;;;7340993;32;20187;-65
2022/08/04 08:43:55;;;;;;;8.05;2.30;;;27.60;99.90;;;;;;7337078;32;20435;-65
2022/08/04 08:48:16;;;;;;;4.43;1.80;;;28.40;99.90;;;;;;7335131;32;20597;-65
2022/08/04 08:52:35;;;;;;;3.90;1.67;;;28.90;99.90;;;;;;7341141;32;20127;-65
2022/08/04 08:57:20;;;;;;;3.58;1.92;;;29.60;99.90;;;;;;7343504;32;20530;-64
2022/08/04 09:01:31;;;;;;;3.72;1.80;;;30.90;99.90;;;;;;7330174;32;20209;-64
2022/08/04 09:05:42;;;;;;;6.57;1.80;;;31.20;99.90;;;;;;7341844;32;20197;-63
2022/08/04 09:10:10;;;;;;;7.28;2.10;;;31.50;99.90;;;;;;7339136;32;20225;-64
2022/08/04 09:14:38;;;;;;;5.32;1.80;;;31.90;98.50;;;;;;7338614;32;20200;-65
2022/08/04 09:19:04;;;;;;;6.60;2.08;;;32.00;97.80;;;;;;7334069;32;20606;-66
2022/08/04 09:23:25;;;;;;;4.28;1.77;;;32.00;97.80;;;;;;7338878;32;20590;-65
2022/08/04 09:27:51;;;;;;;7.22;2.30;;;32.00;95.40;;;;;;7337562;32;20535;-65
2022/08/04 09:32:01;;;;;;;5.60;1.90;;;31.60;96.30;;;;;;7341388;32;20211;-65
2022/08/04 09:36:22;;;;;;;5.82;2.40;;;31.10;95.20;;;;;;7348588;32;20142;-65
2022/08/04 09:40:33;;;;;;;7.65;2.55;;;30.90;97.00;;;;;;7343820;32;20107;-65
2022/08/04 09:45:09;;;;;;;3.78;1.95;;;30.70;97.50;;;;;;7341604;32;20134;-65
2022/08/04 09:49:36;;;;;;;4.22;2.20;;;30.40;96.80;;;;;;7343169;32;20245;-66
2022/08/04 09:53:51;;;;;;;6.78;2.60;;;30.90;96.70;;;;;;7344941;32;20146;-65
2022/08/04 09:58:10;;;;;;;5.85;2.20;;;31.60;97.30;;;;;;7339525;32;20226;-64
2022/08/04 10:02:14;;;;;;;4.25;1.90;;;32.40;94.20;;;;;;7336430;32;20265;-65
2022/08/04 10:06:33;;;;;;;6.62;1.90;;;33.20;92.40;;;;;;7347262;32;20710;-65
2022/08/04 10:11:02;;;;;;;4.25;1.60;;;33.70;91.20;;;;;;7340441;32;20484;-65
2022/08/04 10:15:19;;;;;;;7.43;1.90;;;33.90;89.00;;;;;;7345465;32;20288;-65
2022/08/04 10:19:27;;;;;;;8.05;2.00;;;33.40;88.30;;;;;;7340907;32;20614;-66
2022/08/04 10:24:00;;;;;;;6.65;1.65;;;33.00;89.30;;;;;;7339421;32;20149;-65
2022/08/04 10:28:07;;;;;;;7.30;2.03;;;33.20;91.00;;;;;;7335793;32;20132;-64
2022/08/04 10:32:33;;;;;;;6.85;2.30;;;33.20;87.90;;;;;;7345535;32;20119;-64
2022/08/04 10:36:57;;;;;;;8.43;1.77;;;32.80;90.00;;;;;;7338776;32;20249;-65
2022/08/04 10:41:11;;;;;;;6.40;1.70;;;32.50;90.20;;;;;;7338372;32;20139;-65
2022/08/04 10:45:18;;;;;;;9.15;1.67;;;32.60;91.00;;;;;;7332664;32;20208;-64
2022/08/04 10:49:32;;;;;;;8.27;1.98;;;32.20;88.00;;;;;;7341191;32;20294;-64
2022/08/04 10:53:38;;;;;;;10.38;2.08;;;31.90;88.80;;;;;;7345243;32;20241;-64
2022/08/04 10:57:42;;;;;;;6.18;2.10;;;31.90;92.10;;;;;;7347304;32;20190;-64
2022/08/04 11:01:49;;;;;;;14.43;1.60;;;32.10;91.20;;;;;;7336605;32;20176;-64
2022/08/04 11:06:04;;;;;;;6.28;1.80;;;32.20;91.20;;;;;;7344245;32;20205;-64
2022/08/04 11:10:07;;;;;;;5.97;1.35;;;32.40;91.60;;;;;;7334511;32;20116;-64
2022/08/04 11:14:12;;;;;;;4.43;1.35;;;32.60;90.80;;;;;;7342304;32;20256;-64
2022/08/04 11:18:26;;;;;;;5.72;1.33;;;32.60;88.70;;;;;;7335783;32;20800;-65
2022/08/04 11:22:28;;;;;;;5.28;1.12;;;32.40;88.20;;;;;;7342457;32;20781;-64
2022/08/04 11:26:59;;;;;;;9.52;1.58;;;32.20;86.70;;;;;;7339787;32;20377;-64
2022/08/04 11:31:26;;;;;;;6.50;1.50;;;32.10;85.40;;;;;;7333835;32;20485;-64
2022/08/04 11:35:34;;;;;;;11.15;1.60;;;31.80;87.40;;;;;;7332566;32;20558;-63
2022/08/04 11:39:43;;;;;;;3.15;1.20;;;31.20;89.40;;;;;;7341661;32;20190;-63
2022/08/04 11:43:57;;;;;;;5.93;1.27;;;30.80;89.10;;;;;;7343456;32;20276;-63
2022/08/04 11:48:15;;;;;;;9.10;1.70;;;30.50;90.00;;;;;;7340887;32;20121;-62
2022/08/04 11:52:19;;;;;;;9.02;1.58;;;30.40;91.70;;;;;;7339227;32;20266;-61
2022/08/04 11:56:21;;;;;;;5.22;1.50;;;30.20;91.80;;;;;;7331127;32;20149;-63
2022/08/04 12:00:51;;;;;;;6.68;1.60;;;30.10;92.70;;;;;;7333418;32;20103;-63
2022/08/04 12:04:58;;;;;;;6.20;1.35;;;30.00;92.50;;;;;;7333637;32;20262;-62
2022/08/04 12:09:15;;;;;;;6.97;1.35;;;29.80;92.20;;;;;;7340174;32;20541;-62
2022/08/04 12:13:36;;;;;;;;;;;29.70;92.60;;;;;;7339675;32;20180;-64
2022/08/04 12:17:45;;;;;;;5.45;1.33;;;29.70;92.70;;;;;;7331276;32;20006;-64
2022/08/04 12:21:58;;;;;;;5.62;1.55;;;29.60;94.10;;;;;;7340976;32;20927;-64
2022/08/04 12:26:06;;;;;;;9.20;1.50;;;29.70;94.20;;;;;;7341362;32;20115;-65
2022/08/04 12:30:09;;;;;;;9.00;1.50;;;29.70;96.20;;;;;;7331945;32;20439;-63
2022/08/04 12:34:39;;;;;;;6.35;1.60;;;29.80;95.70;;;;;;7333231;32;20250;-64
2022/08/04 12:39:22;;;;;;;7.45;2.03;;;29.90;96.50;;;;;;7341673;32;20578;-63
2022/08/04 12:43:41;;;;;;;7.22;2.03;;;29.80;96.10;;;;;;7275435;32;20263;-64
2022/08/04 12:47:45;;;;;;;6.90;2.05;;;29.50;97.50;;;;;;7331931;32;20139;-62
2022/08/04 12:51:47;;;;;;;7.15;2.30;;;29.70;96.80;;;;;;7339050;32;20783;-62
2022/08/04 12:56:11;;;;;;;8.48;2.28;;;30.00;96.40;;;;;;7338606;32;20172;-62
2022/08/04 13:00:25;;;;;;;8.10;2.45;;;30.10;96.80;;;;;;7328629;32;20339;-62
2022/08/04 13:04:37;;;;;;;7.70;2.20;;;30.00;97.30;;;;;;7337555;32;20546;-62
2022/08/04 13:08:43;;;;;;;10.48;2.05;;;30.20;99.00;;;;;;7332892;32;20595;-63
2022/08/04 13:12:56;;;;;;;7.62;2.55;;;30.30;98.10;;;;;;7342734;32;20166;-62
2022/08/04 13:17:00;;;;;;;9.30;2.28;;;30.50;96.00;;;;;;7339763;32;20571;-62
2022/08/04 13:21:13;;;;;;;6.87;2.08;;;30.60;96.20;;;;;;7340527;32;20130;-62
2022/08/04 13:25:27;;;;;;;7.55;1.98;;;30.60;95.40;;;;;;7341779;32;20599;-62
2022/08/04 13:29:54;;;;;;;10.75;1.80;;;30.10;96.10;;;;;;7338500;32;20670;-62
2022/08/04 13:34:08;;;;;;;3.92;1.87;;;30.10;97.20;;;;;;7337700;32;20111;-62
2022/08/04 13:38:22;;;;;;;5.07;1.62;;;30.00;96.30;;;;;;7342705;32;20176;-62
2022/08/04 13:42:25;;;;;;;8.43;2.05;;;30.00;96.20;;;;;;7340515;32;20892;-62
2022/08/04 13:46:30;;;;;;;7.60;2.05;;;29.90;99.90;;;;;;7343815;32;20199;-62
2022/08/04 13:50:32;;;;;;;10.00;2.22;;;29.80;98.40;;;;;;7338512;32;20333;-62
2022/08/04 13:54:42;;;;;;;7.45;2.20;;;30.10;98.80;;;;;;7334872;32;20593;-58
2022/08/04 13:58:46;;;;;;;6.18;1.60;;;30.10;96.80;;;;;;7341038;32;20111;-62
2022/08/04 14:03:09;;;;;;;5.00;2.17;;;30.10;97.50;;;;;;7343507;32;20159;-62
2022/08/04 14:07:26;;;;;;;4.87;1.98;;;29.90;98.30;;;;;;7334145;32;20508;-62
2022/08/04 14:11:38;;;;;;;6.53;2.15;;;29.80;98.30;;;;;;7342680;32;20115;-63
2022/08/04 14:16:00;;;;;;;6.75;1.70;;;29.70;97.30;;;;;;7346333;32;20104;-62
2022/08/04 14:20:06;;;;;;;9.13;2.15;;;29.60;96.90;;;;;;7337272;32;20174;-62
2022/08/04 14:24:07;;;;;;;9.18;1.65;;;29.40;98.50;;;;;;7347171;32;20219;-62
2022/08/04 14:28:09;;;;;;;6.70;1.77;;;29.20;98.30;;;;;;7339168;32;20133;-61
2022/08/04 14:32:14;;;;;;;6.25;1.95;;;29.00;98.80;;;;;;7335639;32;20668;-61
2022/08/04 14:36:22;;;;;;;6.00;2.33;;;28.70;99.90;;;;;;7342490;32;20107;-62
2022/08/04 14:40:28;;;;;;;6.45;2.10;;;28.60;99.90;;;;;;7330524;32;20158;-62
2022/08/04 14:44:51;;;;;;;8.68;2.33;;;28.40;99.90;;;;;;7341029;32;20750;-57
2022/08/04 14:49:10;;;;;;;7.10;2.15;;;28.20;99.90;;;;;;7338919;32;20119;-63
2022/08/04 14:53:30;;;;;;;9.45;2.50;;;27.90;99.90;;;;;;7339334;32;20111;-63
2022/08/04 14:57:35;;;;;;;8.35;2.47;;;27.80;99.90;;;;;;7345887;32;20271;-63
2022/08/04 15:01:57;;;;;;;9.13;2.90;;;27.90;99.90;;;;;;7339205;32;20332;-64
2022/08/04 15:06:02;;;;;;;12.55;2.85;;;27.60;99.90;;;;;;7342987;32;20154;-63
2022/08/04 15:10:11;;;;;;;9.02;2.30;;;27.70;99.90;;;;;;7340308;32;20116;-62
2022/08/04 15:14:14;;;;;;;8.65;2.05;;;27.60;99.90;;;;;;7337142;32;20221;-58
2022/08/04 15:18:36;;;;;;;12.55;2.50;;;27.50;99.90;;;;;;7336680;32;20135;-63
2022/08/04 15:22:39;;;;;;;8.45;1.90;;;27.50;99.90;;;;;;7336801;32;20190;-62
2022/08/04 15:26:50;;;;;;;4.43;1.80;;;27.40;99.90;;;;;;7338294;32;20606;-63
2022/08/04 15:30:54;;;;;;;4.82;1.95;;;27.70;99.90;;;;;;7336485;32;20166;-60
2022/08/04 15:35:02;;;;;;;5.40;1.87;;;27.60;99.90;;;;;;7335433;32;20129;-62
2022/08/04 15:39:22;;;;;;;5.50;1.80;;;27.40;99.90;;;;;;7339640;32;20705;-62
2022/08/04 15:44:15;;;;;;;5.55;2.00;;;27.50;99.90;;;;;;7325732;32;20308;-59
2022/08/04 15:48:18;;;;;;;6.37;2.40;;;27.20;99.90;;;;;;7279253;32;20131;-60
2022/08/04 15:52:20;;;;;;;6.18;1.90;;;27.10;99.90;;;;;;7336446;32;20191;-59
2022/08/04 15:56:22;;;;;;;7.43;1.80;;;26.90;99.90;;;;;;7337387;32;20719;-59
2022/08/04 16:00:27;;;;;;;6.10;2.03;;;26.80;99.90;;;;;;7334021;32;20107;-60
2022/08/04 16:04:29;;;;;;;8.27;2.28;;;26.60;99.90;;;;;;7337623;32;20130;-59
2022/08/04 16:08:48;;;;;;;5.80;2.65;;;26.50;99.90;;;;;;7334144;32;20194;-59
2022/08/04 16:13:04;;;;;;;5.85;2.03;;;26.30;99.90;;;;;;7336396;32;20119;-60
2022/08/04 16:17:14;;;;;;;5.07;1.75;;;26.30;99.90;;;;;;7334378;32;20114;-59
2022/08/04 16:21:19;;;;;;;8.07;1.87;;;26.60;99.90;;;;;;7334497;32;20336;-62
2022/08/04 16:25:47;;;;;;;9.30;1.80;;;26.90;99.90;;;;;;7333729;32;20111;-63
2022/08/04 16:30:03;;;;;;;7.28;2.00;;;27.30;99.90;;;;;;7333777;32;20210;-63
2022/08/04 16:34:04;;;;;;;6.07;1.57;;;27.60;99.90;;;;;;7340659;32;20251;-64
2022/08/04 16:38:26;;;;;;;10.88;1.60;;;27.70;99.90;;;;;;7336946;32;20687;-64
2022/08/04 16:42:33;;;;;;;6.80;2.10;;;27.80;99.90;;;;;;7335414;32;20169;-63
2022/08/04 16:46:41;;;;;;;;;;;27.90;99.90;;;;;;7335694;32;20788;-64
2022/08/04 16:51:13;;;;;;;4.10;1.67;;;27.90;99.90;;;;;;7327568;32;20089;-63
2022/08/04 16:55:18;;;;;;;5.90;1.92;;;27.80;99.90;;;;;;7339222;32;20206;-63
2022/08/04 16:59:20;;;;;;;7.03;1.70;;;27.70;99.90;;;;;;7337859;32;20537;-64
2022/08/04 17:03:24;;;;;;;5.85;2.35;;;27.60;99.90;;;;;;7329718;32;20224;-63
2022/08/04 17:07:26;;;;;;;5.37;1.58;;;27.50;99.90;;;;;;7335968;32;20127;-62
2022/08/04 17:11:31;;;;;;;9.60;2.12;;;27.30;99.90;;;;;;7343044;32;20131;-63
2022/08/04 17:15:33;;;;;;;7.60;2.10;;;27.30;99.90;;;;;;7332222;32;20261;-63
2022/08/04 17:19:35;;;;;;;7.50;2.05;;;27.20;99.90;;;;;;7341660;32;20220;-65
2022/08/04 17:23:42;;;;;;;4.85;1.83;;;27.10;99.90;;;;;;7338080;32;20126;-64
2022/08/04 17:28:04;;;;;;;7.23;1.90;;;27.00;99.90;;;;;;7340283;32;20408;-64
2022/08/04 17:32:25;;;;;;;9.43;2.20;;;26.80;99.90;;;;;;7335697;32;20230;-67
2022/08/04 17:36:30;;;;;;;7.97;2.03;;;26.70;99.90;;;;;;7333086;32;20203;-66
2022/08/04 17:40:55;;;;;;;8.00;2.30;;;26.70;99.90;;;;;;7341527;32;20213;-64
2022/08/04 17:45:17;;;;;;;9.38;1.87;;;26.60;99.90;;;;;;7344069;32;20234;-64
2022/08/04 17:49:39;;;;;;;6.32;2.17;;;26.50;99.90;;;;;;7338905;32;20155;-65
2022/08/04 17:53:58;;;;;;;7.03;1.80;;;26.50;99.90;;;;;;7336317;32;20621;-65
2022/08/04 17:58:14;;;;;;;4.75;1.60;;;26.50;99.90;;;;;;7330290;32;20222;-65
2022/08/04 18:02:27;;;;;;;8.18;1.90;;;26.40;99.90;;;;;;7330567;32;20135;-65
2022/08/04 18:06:34;;;;;;;5.22;1.60;;;26.20;99.90;;;;;;7340588;32;20195;-67
2022/08/04 18:10:41;;;;;;;6.62;1.50;;;26.10;99.90;;;;;;7347245;32;20194;-66
2022/08/04 18:14:59;;;;;;;4.55;1.60;;;25.90;99.90;;;;;;7349833;32;20150;-65
2022/08/04 18:19:13;;;;;;;6.40;1.87;;;25.80;99.90;;;;;;7348321;32;20435;-64
2022/08/04 18:23:15;;;;;;;4.60;1.60;;;25.70;99.90;;;;;;7347254;32;20222;-66
2022/08/04 18:27:20;;;;;;;7.75;2.08;;;25.60;99.90;;;;;;7341429;32;20139;-67
2022/08/04 18:31:23;;;;;;;6.50;2.00;;;25.40;99.90;;;;;;7345688;32;20123;-67
2022/08/04 18:35:29;;;;;;;5.03;1.90;;;25.30;99.90;;;;;;7345055;32;20178;-67
2022/08/04 18:39:51;;;;;;;4.45;1.50;;;25.10;99.90;;;;;;7341804;32;20206;-69
2022/08/04 18:44:12;;;;;;;7.87;2.30;;;25.00;99.90;;;;;;7347857;32;20130;-67
2022/08/04 18:48:14;;;;;;;3.72;1.92;;;24.80;99.90;;;;;;7341733;32;20155;-67
2022/08/04 18:52:16;;;;;;;4.15;1.70;;;24.70;99.90;;;;;;7344495;32;20499;-66
2022/08/04 18:56:26;;;;;;;4.93;1.95;;;24.60;99.90;;;;;;7338071;32;20230;-65
2022/08/04 19:00:32;;;;;;;6.53;1.80;;;24.50;99.90;;;;;;7341017;32;20205;-66
2022/08/04 19:04:35;;;;;;;8.43;2.58;;;24.30;99.90;;;;;;7345713;32;20133;-67
2022/08/04 19:08:37;;;;;;;9.57;2.28;;;24.20;99.90;;;;;;7346638;32;20233;-66
2022/08/04 19:12:46;;;;;;;6.05;2.78;;;24.00;99.90;;;;;;7339793;32;20103;-65
2022/08/04 19:16:57;;;;;;;6.62;2.58;;;24.00;99.90;;;;;;7335785;32;20236;-64
2022/08/04 19:21:01;;;;;;;8.70;2.85;;;23.90;99.90;;;;;;7346171;32;20107;-63
2022/08/04 19:25:06;;;;;;;8.63;2.40;;;23.80;99.90;;;;;;7343040;32;20161;-64
2022/08/04 19:29:09;;;;;;;8.05;2.60;;;23.70;99.90;;;;;;7335345;32;20129;-63
2022/08/04 19:33:11;;;;;;;8.45;2.30;;;23.50;99.90;;;;;;7337100;32;20310;-62
2022/08/04 19:37:17;;;;;;;4.75;2.35;;;23.40;99.90;;;;;;7336357;32;20103;-63
2022/08/04 19:41:39;;;;;;;7.47;2.85;;;23.40;99.90;;;;;;7340206;32;20260;-63
2022/08/04 19:46:01;;;;;;;6.15;2.60;;;23.40;99.90;;;;;;7339428;32;20126;-64
2022/08/04 19:50:05;;;;;;;4.95;2.20;;;23.30;99.90;;;;;;7345115;32;20225;-62
2022/08/04 19:54:11;;;;;;;11.95;2.60;;;23.10;99.90;;;;;;7337858;32;20107;-64
2022/08/04 19:58:25;;;;;;;4.93;2.33;;;23.00;99.90;;;;;;7338449;32;20130;-63
2022/08/04 20:02:27;;;;;;;5.57;2.28;;;22.80;99.90;;;;;;7327863;32;20282;-63
2022/08/04 20:06:29;;;;;;;5.32;2.75;;;22.60;99.90;;;;;;7342713;32;20405;-62
2022/08/04 20:10:32;;;;;;;9.57;2.60;;;22.50;99.90;;;;;;7330606;32;20273;-63
2022/08/04 20:14:34;;;;;;;9.07;2.90;;;22.50;99.90;;;;;;7336736;32;20239;-61
2022/08/04 20:18:36;;;;;;;6.10;2.80;;;22.40;99.90;;;;;;7336577;32;20209;-62
2022/08/04 20:22:58;;;;;;;4.57;2.35;;;22.20;99.90;;;;;;7339381;32;20136;-63
2022/08/04 20:27:00;;;;;;;6.75;3.00;;;22.10;99.90;;;;;;7336261;32;20186;-62
2022/08/04 20:31:08;;;;;;;9.15;3.25;;;22.00;99.90;;;;;;7332745;32;20637;-62
2022/08/04 20:35:11;;;;;;;6.07;2.75;;;21.90;99.90;;;;;;7337358;32;20410;-63
2022/08/04 20:39:17;;;;;;;7.82;2.95;;;21.80;99.90;;;;;;7339735;32;20161;-63
2022/08/04 20:43:22;;;;;;;10.32;3.10;;;21.70;99.90;;;;;;7341347;32;20122;-62
2022/08/04 20:47:28;;;;;;;10.23;3.20;;;21.60;99.90;;;;;;7336286;32;20179;-62
2022/08/04 20:51:45;;;;;;;9.70;3.30;;;21.50;99.90;;;;;;7342754;32;20137;-63
2022/08/04 20:55:50;;;;;;;5.28;2.90;;;21.40;99.90;;;;;;7334811;32;20135;-64
2022/08/04 20:59:56;;;;;;;6.00;2.95;;;21.30;99.90;;;;;;7334311;32;20682;-62
2022/08/04 21:08:29;;;;;;;10.05;3.70;;;21.10;99.90;;;;;;7336874;32;20707;-63
2022/08/04 21:12:34;;;;;;;7.82;3.22;;;21.00;99.90;;;;;;7338203;32;20234;-61
2022/08/04 21:16:35;;;;;;;8.07;3.40;;;21.00;99.90;;;;;;7346380;32;20537;-61
2022/08/04 21:20:56;;;;;;;4.85;2.72;;;20.90;99.90;;;;;;7339300;32;20168;-61
2022/08/04 21:24:58;;;;;;;4.68;3.20;;;21.00;99.90;;;;;;7340925;32;20611;-61
2022/08/04 21:29:02;;;;;;;6.12;2.15;;;21.30;99.90;;;;;;7340591;32;20184;-61
2022/08/04 21:33:04;;;;;;;7.62;2.30;;;21.40;99.90;;;;;;7347890;32;20139;-61
2022/08/04 21:37:11;;;;;;;4.10;1.40;;;21.60;99.90;;;;;;7347390;32;20110;-60
2022/08/04 21:41:13;;;;;;;4.85;1.50;;;21.60;99.90;;;;;;7341215;32;20100;-61
2022/08/04 21:45:25;;;;;;;5.47;1.60;;;21.70;99.90;;;;;;7347763;32;20240;-60
2022/08/04 21:49:37;;;;;;;3.35;1.08;;;21.80;99.90;;;;;;7341085;32;20205;-60
2022/08/04 21:53:57;;;;;;;6.43;1.50;;;21.80;99.90;;;;;;7343603;32;20221;-61
2022/08/04 21:57:59;;;;;;;5.90;1.77;;;21.80;99.90;;;;;;7340401;32;20194;-60
2022/08/04 22:02:03;;;;;;;2.22;1.40;;;21.80;99.90;;;;;;7342979;32;20183;-61